Dong Gui 5 — BMKF — position and weather

sailwx.info

Track history (hours):
 
Tides and Currents Weather Stations Pressure Air Temp Water Temp Dewpoint Dewpoint Depression Visibility Wind Speed Wind Dir Waves Ship Positions

Dong Gui 5

Last reported at 2016-Feb-06 08:27 UTC. Time now 2016-Feb-12 07:48 UTC.
Position N 22°54' E 113°28'.

Length 62 m.

Type: Tanker. MMSI: 412500730.

Date/timePositionNaut miles runAvg speedWind from/ knotsBaromVisibWave heightAir tempDewpointWater temp
2016-Feb-06 08:27N 22°54' E 113°28'5 4.0
2016-Feb-06 07:17N 22°57' E 113°33'2 2.2
2016-Feb-06 06:32N 22°58' E 113°33'0 0.0
2016-Feb-06 05:33N 22°58' E 113°33'0 0.0
2016-Feb-06 04:33N 22°58' E 113°33'0 0.0
2016-Feb-06 03:33N 22°58' E 113°33'0 0.0
2016-Feb-06 02:33N 22°58' E 113°33'0 0.0
2016-Feb-06 01:30N 22°58' E 113°33'0 0.0
2016-Feb-06 00:34N 22°58' E 113°33'0 0.0
2016-Feb-05 23:32N 22°58' E 113°33'0 0.0
2016-Feb-05 19:21N 22°58' E 113°33'0 0.0
2016-Feb-05 18:33N 22°58' E 113°33'0 0.0
2016-Feb-05 17:33N 22°58' E 113°33'2 1.4
2016-Feb-05 16:22N 22°57' E 113°33'5 6.5
2016-Feb-05 15:33N 22°51' E 113°33'0 0.0
2016-Feb-05 14:28N 22°51' E 113°33'0 0.1
2016-Feb-05 13:26N 22°51' E 113°33'0 0.0
2016-Feb-05 12:31N 22°51' E 113°33'0 0.0
2016-Feb-05 11:13N 22°51' E 113°33'0 0.0
2016-Feb-05 10:22N 22°51' E 113°33'0 0.1
2016-Feb-05 09:33N 22°51' E 113°33'0 0.0
2016-Feb-05 08:33N 22°51' E 113°33'0 0.0
2016-Feb-05 07:31N 22°51' E 113°33'0 0.0
2016-Feb-05 06:30N 22°51' E 113°33'0 0.0
2016-Feb-05 05:33N 22°51' E 113°33'0 0.0
2016-Feb-05 04:29N 22°51' E 113°33'0 0.0
2016-Feb-05 03:33N 22°51' E 113°33'0 0.0
2016-Feb-05 02:27N 22°51' E 113°33'0 0.0
2016-Feb-05 01:12N 22°51' E 113°33'0 0.0
2016-Feb-05 00:27N 22°51' E 113°33'0 0.0
2016-Feb-04 23:32N 22°51' E 113°33'0 0.0
2016-Feb-04 22:29N 22°51' E 113°33'0 0.1
2016-Feb-04 21:21N 22°51' E 113°33'0 0.0
2016-Feb-04 20:31N 22°51' E 113°33'0 0.0
2016-Feb-04 19:30N 22°51' E 113°33'0 0.0
2016-Feb-04 18:33N 22°51' E 113°33'0 0.0
2016-Feb-04 17:28N 22°51' E 113°33'0 0.0
2016-Feb-04 16:33N 22°51' E 113°33'0 0.0
2016-Feb-04 15:33N 22°51' E 113°33'0 0.0
2016-Feb-04 14:32N 22°51' E 113°33'0 0.0
2016-Feb-04 13:33N 22°51' E 113°33'0 0.0
2016-Feb-04 12:17N 22°51' E 113°33'0 0.0
2016-Feb-04 11:33N 22°51' E 113°33'0 0.0
2016-Feb-04 10:31N 22°51' E 113°33'0 0.0
2016-Feb-04 09:26N 22°51' E 113°33'0 0.1
2016-Feb-04 08:23N 22°51' E 113°33'0 0.0
2016-Feb-04 07:33N 22°51' E 113°33'0 0.0
2016-Feb-04 06:27N 22°51' E 113°33'0 0.0
2016-Feb-04 05:33N 22°51' E 113°33'0 0.0
2016-Feb-04 04:33N 22°51' E 113°33'4 3.8
2016-Feb-04 03:32N 22°54' E 113°30'  
2016-Feb-01 21:32N 22°54' E 113°23'7 6.8
2016-Feb-01 20:30N 22°53' E 113°31'3 2.7
2016-Feb-01 19:23N 22°55' E 113°33'3 2.9
2016-Feb-01 18:15N 22°58' E 113°33'0 0.0
2016-Feb-01 12:24N 22°58' E 113°33'0 0.0
2016-Feb-01 11:21N 22°58' E 113°33'0 0.0
2016-Feb-01 08:33N 22°58' E 113°33'6 5.9
2016-Feb-01 07:28N 22°52' E 113°33'10 9.5
2016-Feb-01 06:22N 22°54' E 113°22'  
2016-Jan-29 17:18N 21°60' E 113°06'2 2.2
2016-Jan-29 16:33N 21°59' E 113°07'0 0.3
2016-Jan-29 15:33N 21°58' E 113°07'8 7.2
2016-Jan-29 14:27N 21°53' E 113°14'0 0.1
2016-Jan-29 13:33N 21°53' E 113°14'0 0.0
2016-Jan-29 12:23N 21°53' E 113°14'0 0.0
2016-Jan-29 11:16N 21°53' E 113°14'0 0.0
2016-Jan-29 10:25N 21°53' E 113°14'0 0.0
2016-Jan-29 09:32N 21°53' E 113°14'0 0.0
2016-Jan-29 08:33N 21°53' E 113°14'0 0.0
2016-Jan-29 07:33N 21°53' E 113°14'0 0.0
2016-Jan-29 05:33N 21°53' E 113°14'0 0.0
2016-Jan-29 04:31N 21°53' E 113°14'1 1.5
2016-Jan-29 03:33N 21°53' E 113°13'2 1.8
2016-Jan-29 02:33N 21°53' E 113°11'0 0.0
2016-Jan-29 01:32N 21°53' E 113°11'0 0.0
2016-Jan-29 00:33N 21°53' E 113°11'0 0.1
2016-Jan-28 23:30N 21°53' E 113°11'0 0.0
2016-Jan-28 22:32N 21°53' E 113°11'0 0.0
2016-Jan-28 21:29N 21°53' E 113°11'0 0.0
2016-Jan-28 20:32N 21°53' E 113°11'0 0.1
2016-Jan-28 19:33N 21°53' E 113°11'0 0.0
2016-Jan-28 18:32N 21°53' E 113°11'0 0.0
2016-Jan-28 17:32N 21°53' E 113°11'0 0.0
2016-Jan-28 16:30N 21°53' E 113°11'0 0.0
2016-Jan-28 15:33N 21°53' E 113°11'0 0.0
2016-Jan-28 14:33N 21°53' E 113°11'0 0.0
2016-Jan-28 13:32N 21°53' E 113°11'0 0.0
2016-Jan-28 12:32N 21°53' E 113°11'0 0.1
2016-Jan-28 11:32N 21°53' E 113°11'63 6.2
2016-Jan-28 01:23N 22°55' E 113°26'7 7.1
2016-Jan-28 00:21N 22°52' E 113°33'1 0.6
2016-Jan-27 23:29N 22°51' E 113°34'0 0.0
2016-Jan-27 22:17N 22°51' E 113°33'0 0.1
2016-Jan-27 21:32N 22°51' E 113°34'0 0.0
2016-Jan-27 20:32N 22°51' E 113°34'0 0.0
2016-Jan-27 19:32N 22°51' E 113°34'1 0.3
2016-Jan-27 16:25N 22°50' E 113°34'0 0.0
2016-Jan-27 14:27N 22°50' E 113°34'0 0.0
2016-Jan-27 13:19N 22°50' E 113°34'0 0.0
2016-Jan-27 12:13N 22°50' E 113°34'0 0.0
2016-Jan-27 10:27N 22°50' E 113°34'0 0.0
2016-Jan-27 09:27N 22°50' E 113°34'  
Track history (hours):
 
Tides and Currents Weather Stations Pressure Air Temp Water Temp Dewpoint Dewpoint Depression Visibility Wind Speed Wind Dir Waves Ship Positions

Dong Gui 5

Last reported at 2016-Feb-06 08:27 UTC. Time now 2016-Feb-12 07:48 UTC.
Position N 22°54' E 113°28'.

Length 62 m.

Type: Tanker. MMSI: 412500730.

Date/timePositionNaut miles runAvg speedWind from/ knotsBaromVisibWave heightAir tempDewpointWater temp
2016-Feb-06 08:27N 22°54' E 113°28'5 4.0
2016-Feb-06 07:17N 22°57' E 113°33'2 2.2
2016-Feb-06 06:32N 22°58' E 113°33'0 0.0
2016-Feb-06 05:33N 22°58' E 113°33'0 0.0
2016-Feb-06 04:33N 22°58' E 113°33'0 0.0
2016-Feb-06 03:33N 22°58' E 113°33'0 0.0
2016-Feb-06 02:33N 22°58' E 113°33'0 0.0
2016-Feb-06 01:30N 22°58' E 113°33'0 0.0
2016-Feb-06 00:34N 22°58' E 113°33'0 0.0
2016-Feb-05 23:32N 22°58' E 113°33'0 0.0
2016-Feb-05 19:21N 22°58' E 113°33'0 0.0
2016-Feb-05 18:33N 22°58' E 113°33'0 0.0
2016-Feb-05 17:33N 22°58' E 113°33'2 1.4
2016-Feb-05 16:22N 22°57' E 113°33'5 6.5
2016-Feb-05 15:33N 22°51' E 113°33'0 0.0
2016-Feb-05 14:28N 22°51' E 113°33'0 0.1
2016-Feb-05 13:26N 22°51' E 113°33'0 0.0
2016-Feb-05 12:31N 22°51' E 113°33'0 0.0
2016-Feb-05 11:13N 22°51' E 113°33'0 0.0
2016-Feb-05 10:22N 22°51' E 113°33'0 0.1
2016-Feb-05 09:33N 22°51' E 113°33'0 0.0
2016-Feb-05 08:33N 22°51' E 113°33'0 0.0
2016-Feb-05 07:31N 22°51' E 113°33'0 0.0
2016-Feb-05 06:30N 22°51' E 113°33'0 0.0
2016-Feb-05 05:33N 22°51' E 113°33'0 0.0
2016-Feb-05 04:29N 22°51' E 113°33'0 0.0
2016-Feb-05 03:33N 22°51' E 113°33'0 0.0
2016-Feb-05 02:27N 22°51' E 113°33'0 0.0
2016-Feb-05 01:12N 22°51' E 113°33'0 0.0
2016-Feb-05 00:27N 22°51' E 113°33'0 0.0
2016-Feb-04 23:32N 22°51' E 113°33'0 0.0
2016-Feb-04 22:29N 22°51' E 113°33'0 0.1
2016-Feb-04 21:21N 22°51' E 113°33'0 0.0
2016-Feb-04 20:31N 22°51' E 113°33'0 0.0
2016-Feb-04 19:30N 22°51' E 113°33'0 0.0
2016-Feb-04 18:33N 22°51' E 113°33'0 0.0
2016-Feb-04 17:28N 22°51' E 113°33'0 0.0
2016-Feb-04 16:33N 22°51' E 113°33'0 0.0
2016-Feb-04 15:33N 22°51' E 113°33'0 0.0
2016-Feb-04 14:32N 22°51' E 113°33'0 0.0
2016-Feb-04 13:33N 22°51' E 113°33'0 0.0
2016-Feb-04 12:17N 22°51' E 113°33'0 0.0
2016-Feb-04 11:33N 22°51' E 113°33'0 0.0
2016-Feb-04 10:31N 22°51' E 113°33'0 0.0
2016-Feb-04 09:26N 22°51' E 113°33'0 0.1
2016-Feb-04 08:23N 22°51' E 113°33'0 0.0
2016-Feb-04 07:33N 22°51' E 113°33'0 0.0
2016-Feb-04 06:27N 22°51' E 113°33'0 0.0
2016-Feb-04 05:33N 22°51' E 113°33'0 0.0
2016-Feb-04 04:33N 22°51' E 113°33'4 3.8
2016-Feb-04 03:32N 22°54' E 113°30'  
2016-Feb-01 21:32N 22°54' E 113°23'7 6.8
2016-Feb-01 20:30N 22°53' E 113°31'3 2.7
2016-Feb-01 19:23N 22°55' E 113°33'3 2.9
2016-Feb-01 18:15N 22°58' E 113°33'0 0.0
2016-Feb-01 12:24N 22°58' E 113°33'0 0.0
2016-Feb-01 11:21N 22°58' E 113°33'0 0.0
2016-Feb-01 08:33N 22°58' E 113°33'6 5.9
2016-Feb-01 07:28N 22°52' E 113°33'10 9.5
2016-Feb-01 06:22N 22°54' E 113°22'  
2016-Jan-29 17:18N 21°60' E 113°06'2 2.2
2016-Jan-29 16:33N 21°59' E 113°07'0 0.3
2016-Jan-29 15:33N 21°58' E 113°07'8 7.2
2016-Jan-29 14:27N 21°53' E 113°14'0 0.1
2016-Jan-29 13:33N 21°53' E 113°14'0 0.0
2016-Jan-29 12:23N 21°53' E 113°14'0 0.0
2016-Jan-29 11:16N 21°53' E 113°14'0 0.0
2016-Jan-29 10:25N 21°53' E 113°14'0 0.0
2016-Jan-29 09:32N 21°53' E 113°14'0 0.0
2016-Jan-29 08:33N 21°53' E 113°14'0 0.0
2016-Jan-29 07:33N 21°53' E 113°14'0 0.0
2016-Jan-29 05:33N 21°53' E 113°14'0 0.0
2016-Jan-29 04:31N 21°53' E 113°14'1 1.5
2016-Jan-29 03:33N 21°53' E 113°13'2 1.8
2016-Jan-29 02:33N 21°53' E 113°11'0 0.0
2016-Jan-29 01:32N 21°53' E 113°11'0 0.0
2016-Jan-29 00:33N 21°53' E 113°11'0 0.1
2016-Jan-28 23:30N 21°53' E 113°11'0 0.0
2016-Jan-28 22:32N 21°53' E 113°11'0 0.0
2016-Jan-28 21:29N 21°53' E 113°11'0 0.0
2016-Jan-28 20:32N 21°53' E 113°11'0 0.1
2016-Jan-28 19:33N 21°53' E 113°11'0 0.0
2016-Jan-28 18:32N 21°53' E 113°11'0 0.0
2016-Jan-28 17:32N 21°53' E 113°11'0 0.0
2016-Jan-28 16:30N 21°53' E 113°11'0 0.0
2016-Jan-28 15:33N 21°53' E 113°11'0 0.0
2016-Jan-28 14:33N 21°53' E 113°11'0 0.0
2016-Jan-28 13:32N 21°53' E 113°11'0 0.0
2016-Jan-28 12:32N 21°53' E 113°11'0 0.1
2016-Jan-28 11:32N 21°53' E 113°11'63 6.2
2016-Jan-28 01:23N 22°55' E 113°26'7 7.1
2016-Jan-28 00:21N 22°52' E 113°33'1 0.6
2016-Jan-27 23:29N 22°51' E 113°34'0 0.0
2016-Jan-27 22:17N 22°51' E 113°33'0 0.1
2016-Jan-27 21:32N 22°51' E 113°34'0 0.0
2016-Jan-27 20:32N 22°51' E 113°34'0 0.0
2016-Jan-27 19:32N 22°51' E 113°34'1 0.3
2016-Jan-27 16:25N 22°50' E 113°34'0 0.0
2016-Jan-27 14:27N 22°50' E 113°34'0 0.0
2016-Jan-27 13:19N 22°50' E 113°34'0 0.0
2016-Jan-27 12:13N 22°50' E 113°34'0 0.0
2016-Jan-27 10:27N 22°50' E 113°34'0 0.0
2016-Jan-27 09:27N 22°50' E 113°34'  

Dump ship's entire track history